createdAt,value
2022-11-15T00:01:12.258Z,11.20
2022-11-15T00:03:39.035Z,11.16
2022-11-15T00:06:06.209Z,11.13
2022-11-15T00:08:33.779Z,11.09
2022-11-15T00:11:02.728Z,11.06
2022-11-15T00:13:31.197Z,11.03
2022-11-15T00:16:00.649Z,10.99
2022-11-15T00:18:28.461Z,10.97
2022-11-15T00:20:55.490Z,10.92
2022-11-15T00:23:22.277Z,10.90
2022-11-15T00:25:56.481Z,10.88
2022-11-15T00:28:23.192Z,10.80
2022-11-15T00:30:49.994Z,10.74
2022-11-15T00:33:16.785Z,10.73
2022-11-15T00:35:43.696Z,10.73
2022-11-15T00:38:10.476Z,10.72
2022-11-15T00:40:37.236Z,10.70
2022-11-15T00:43:04.029Z,10.68
2022-11-15T00:45:30.790Z,10.66
2022-11-15T00:47:57.589Z,10.65
2022-11-15T00:50:24.366Z,10.64
2022-11-15T00:52:51.126Z,10.64
2022-11-15T00:55:19.237Z,10.64
2022-11-15T00:57:47.476Z,10.62
2022-11-15T01:00:14.966Z,10.61
2022-11-15T01:02:41.758Z,10.60
2022-11-15T01:05:09.154Z,10.62
2022-11-15T01:07:36.255Z,10.66
2022-11-15T01:10:03.931Z,10.72
2022-11-15T01:12:30.803Z,10.79
2022-11-15T01:14:57.610Z,10.87
2022-11-15T01:17:24.762Z,10.92
2022-11-15T01:19:51.521Z,11.00
2022-11-15T01:22:18.442Z,11.07
2022-11-15T01:24:45.309Z,11.12
2022-11-15T01:27:12.073Z,11.19
2022-11-15T01:29:38.846Z,11.25
2022-11-15T01:32:05.697Z,11.31
2022-11-15T01:34:32.453Z,11.36
2022-11-15T01:36:59.745Z,11.40
2022-11-15T01:39:27.350Z,11.43
2022-11-15T01:41:54.615Z,11.47
2022-11-15T01:44:45.655Z,11.49
2022-11-15T01:47:30.530Z,11.50
2022-11-15T01:50:07.578Z,11.51
2022-11-15T01:52:36.215Z,11.53
2022-11-15T01:55:17.338Z,11.57
2022-11-15T01:57:48.092Z,11.55
2022-11-15T02:00:16.020Z,11.51
2022-11-15T02:02:42.872Z,11.47
2022-11-15T02:05:09.750Z,11.43
2022-11-15T02:07:37.446Z,11.39
2022-11-15T02:10:14.940Z,11.35
2022-11-15T02:12:42.484Z,11.29
2022-11-15T02:15:11.005Z,11.23
2022-11-15T02:18:03.359Z,11.19
2022-11-15T02:20:57.130Z,11.12
2022-11-15T02:24:11.077Z,11.07
2022-11-15T02:26:57.517Z,11.07
2022-11-15T02:30:13.861Z,11.04
2022-11-15T02:32:51.912Z,11.05
2022-11-15T02:35:30.197Z,11.04
2022-11-15T02:38:16.753Z,11.03
2022-11-15T02:41:02.880Z,11.03
2022-11-15T02:43:59.903Z,10.99
2022-11-15T02:47:00.551Z,10.97
2022-11-15T02:49:30.370Z,10.94
2022-11-15T02:51:57.450Z,10.95
2022-11-15T02:54:30.309Z,10.96
2022-11-15T02:57:17.944Z,10.97
2022-11-15T03:00:08.973Z,10.95
2022-11-15T03:03:13.200Z,10.93
2022-11-15T03:06:03.680Z,10.91
2022-11-15T03:08:33.853Z,10.91
2022-11-15T03:11:22.618Z,10.92
2022-11-15T03:14:01.959Z,10.94
2022-11-15T03:16:38.495Z,10.96
2022-11-15T03:19:20.557Z,10.96
2022-11-15T03:21:49.198Z,10.95
2022-11-15T03:24:25.650Z,10.96
2022-11-15T03:26:55.862Z,10.97
2022-11-15T03:29:29.855Z,10.96
2022-11-15T03:32:07.783Z,10.95
2022-11-15T03:34:52.121Z,10.94
2022-11-15T03:37:22.176Z,10.92
2022-11-15T03:39:48.945Z,10.92
2022-11-15T03:42:31.826Z,10.94
2022-11-15T03:45:30.124Z,10.93
2022-11-15T03:48:06.991Z,10.96
2022-11-15T03:50:34.480Z,10.99
2022-11-15T03:53:01.903Z,11.02
2022-11-15T03:55:28.693Z,11.04
2022-11-15T03:57:59.930Z,11.05
2022-11-15T04:00:27.419Z,11.06
2022-11-15T04:02:54.195Z,11.08
2022-11-15T04:05:20.959Z,11.10
2022-11-15T04:07:47.734Z,11.10
2022-11-15T04:10:14.955Z,11.09
2022-11-15T04:12:47.144Z,11.07
2022-11-15T04:15:21.724Z,11.04
2022-11-15T04:17:57.479Z,11.02
2022-11-15T04:20:46.546Z,10.99
2022-11-15T04:23:38.483Z,10.93
2022-11-15T04:26:12.738Z,10.89
2022-11-15T04:28:59.440Z,10.80
2022-11-15T04:31:26.419Z,10.75
2022-11-15T04:33:53.825Z,10.73
2022-11-15T04:36:39.943Z,10.74
2022-11-15T04:39:06.711Z,10.71
2022-11-15T04:41:33.565Z,10.71
2022-11-15T04:44:00.430Z,10.69
2022-11-15T04:46:27.522Z,10.67
2022-11-15T04:48:58.613Z,10.64
2022-11-15T04:51:26.485Z,10.63
2022-11-15T04:53:53.450Z,10.61
2022-11-15T04:56:20.380Z,10.60
2022-11-15T04:58:50.578Z,10.59
2022-11-15T05:01:17.692Z,10.56
2022-11-15T05:04:04.121Z,10.56
2022-11-15T05:06:31.211Z,10.52
2022-11-15T05:08:58.720Z,10.50
2022-11-15T05:11:26.316Z,10.51
2022-11-15T05:13:53.125Z,10.51
2022-11-15T05:16:20.213Z,10.52
2022-11-15T05:18:47.036Z,10.51
2022-11-15T05:21:15.870Z,10.52
2022-11-15T05:23:42.864Z,10.52
2022-11-15T05:26:11.137Z,10.54
2022-11-15T05:28:39.092Z,10.56
2022-11-15T05:31:11.642Z,10.60
2022-11-15T05:33:41.209Z,10.67
2022-11-15T05:36:37.592Z,10.75
2022-11-15T05:39:08.912Z,10.81
2022-11-15T05:41:51.339Z,10.89
2022-11-15T05:44:22.296Z,10.92
2022-11-15T05:46:50.408Z,10.99
2022-11-15T05:49:21.274Z,11.05
2022-11-15T05:51:49.361Z,11.13
2022-11-15T05:54:17.294Z,11.22
2022-11-15T05:56:44.849Z,11.30
2022-11-15T05:59:12.597Z,11.39
2022-11-15T06:01:40.644Z,11.48
2022-11-15T06:04:07.741Z,11.55
2022-11-15T06:06:34.562Z,11.62
2022-11-15T06:09:01.367Z,11.66
2022-11-15T06:11:28.914Z,11.71
2022-11-15T06:13:55.758Z,11.75
2022-11-15T06:16:22.565Z,11.78
2022-11-15T06:18:49.389Z,11.83
2022-11-15T06:21:16.171Z,11.86
2022-11-15T06:23:42.971Z,11.89
2022-11-15T06:26:09.748Z,11.92
2022-11-15T06:28:36.569Z,11.93
2022-11-15T06:31:08.956Z,11.97
2022-11-15T06:33:35.925Z,11.98
2022-11-15T06:36:13.225Z,12.01
2022-11-15T06:38:45.345Z,12.01
2022-11-15T06:41:14.307Z,12.04
2022-11-15T06:43:41.736Z,12.04
2022-11-15T06:46:08.930Z,12.06
2022-11-15T06:48:37.076Z,12.08
2022-11-15T06:51:05.810Z,12.10
2022-11-15T06:53:33.318Z,12.12
2022-11-15T06:56:06.625Z,12.15
2022-11-15T06:58:33.948Z,12.18
2022-11-15T07:01:10.502Z,12.22
2022-11-15T07:03:43.125Z,12.24
2022-11-15T07:06:10.658Z,12.28
2022-11-15T07:08:38.370Z,12.32
2022-11-15T07:11:09.441Z,12.37
2022-11-15T07:13:38.056Z,12.40
2022-11-15T07:16:07.772Z,12.46
2022-11-15T07:18:39.755Z,12.51
2022-11-15T07:21:09.799Z,12.56
2022-11-15T07:23:40.410Z,12.63
2022-11-15T07:26:08.536Z,12.68
2022-11-15T07:28:35.933Z,12.74
2022-11-15T07:31:06.079Z,12.81
2022-11-15T07:33:33.765Z,12.87
2022-11-15T07:36:06.008Z,12.95
2022-11-15T07:38:38.150Z,12.98
2022-11-15T07:41:08.165Z,13.06
2022-11-15T07:43:35.265Z,13.15
2022-11-15T07:46:10.320Z,13.24
2022-11-15T07:48:44.572Z,13.29
2022-11-15T07:51:17.014Z,13.36
2022-11-15T07:53:44.738Z,13.41
2022-11-15T07:56:12.058Z,13.48
2022-11-15T07:58:38.839Z,13.51
2022-11-15T08:01:11.014Z,13.55
2022-11-15T08:03:38.313Z,13.55
2022-11-15T08:06:05.575Z,13.57
2022-11-15T08:08:32.367Z,13.56
2022-11-15T08:10:59.823Z,13.56
2022-11-15T08:13:26.662Z,13.57
2022-11-15T08:15:58.859Z,13.58
2022-11-15T08:18:25.649Z,13.56
2022-11-15T08:20:52.445Z,13.56
2022-11-15T08:23:19.377Z,13.58
2022-11-15T08:25:46.137Z,13.59
2022-11-15T08:28:12.954Z,13.58
2022-11-15T08:30:43.118Z,13.61
2022-11-15T08:33:14.912Z,13.64
2022-11-15T08:35:43.436Z,13.64
2022-11-15T08:38:10.639Z,13.66
2022-11-15T08:40:37.978Z,13.68
2022-11-15T08:43:05.133Z,13.72
2022-11-15T08:45:32.465Z,13.76
2022-11-15T08:48:04.199Z,13.83
2022-11-15T08:50:31.054Z,13.91
2022-11-15T08:52:58.047Z,14.01
2022-11-15T08:55:25.197Z,14.12
2022-11-15T08:57:52.231Z,14.22
2022-11-15T09:00:20.766Z,14.32
2022-11-15T09:02:47.777Z,14.45
2022-11-15T09:05:16.057Z,14.56
2022-11-15T09:07:42.868Z,14.64
2022-11-15T09:10:09.838Z,14.75
2022-11-15T09:12:36.647Z,14.87
2022-11-15T09:15:04.824Z,14.96
2022-11-15T09:17:31.613Z,15.05
2022-11-15T09:19:58.416Z,15.14
2022-11-15T09:22:25.225Z,15.23
2022-11-15T09:24:52.028Z,15.31
2022-11-15T09:27:18.834Z,15.38
2022-11-15T09:29:45.598Z,15.45
2022-11-15T09:32:12.449Z,15.53
2022-11-15T09:34:39.203Z,15.61
2022-11-15T09:37:05.967Z,15.69
2022-11-15T09:39:32.839Z,15.79
2022-11-15T09:42:27.150Z,15.89
2022-11-15T09:45:09.997Z,15.96
2022-11-15T09:47:58.632Z,16.03
2022-11-15T09:50:50.086Z,16.10
2022-11-15T09:54:23.726Z,16.19
2022-11-15T09:56:34.385Z,16.27
2022-11-15T09:59:39.096Z,16.34
2022-11-15T10:02:08.581Z,16.39
2022-11-15T10:04:37.971Z,16.46
2022-11-15T10:07:19.796Z,16.55
2022-11-15T10:09:57.930Z,16.58
2022-11-15T10:12:28.094Z,16.62
2022-11-15T10:15:16.201Z,16.67
2022-11-15T10:18:00.370Z,16.71
2022-11-15T10:20:30.925Z,16.72
2022-11-15T10:23:02.210Z,16.76
2022-11-15T10:25:32.427Z,16.81
2022-11-15T10:28:07.621Z,16.83
2022-11-15T10:30:42.210Z,16.86
2022-11-15T10:33:30.764Z,16.89
2022-11-15T10:36:09.854Z,16.91
2022-11-15T10:38:51.951Z,16.92
2022-11-15T10:41:30.323Z,16.96
2022-11-15T10:44:18.076Z,16.99
2022-11-15T10:46:51.421Z,17.00
2022-11-15T10:49:30.849Z,17.05
2022-11-15T10:52:18.062Z,17.06
2022-11-15T10:54:53.094Z,17.08
2022-11-15T10:57:30.980Z,17.10
2022-11-15T11:00:02.429Z,17.11
2022-11-15T11:02:58.315Z,17.13
2022-11-15T11:05:39.912Z,17.13
2022-11-15T11:08:11.894Z,17.14
2022-11-15T11:10:51.698Z,17.17
2022-11-15T11:13:30.115Z,17.22
2022-11-15T11:16:15.061Z,17.26
2022-11-15T11:19:19.546Z,17.29
2022-11-15T11:22:28.062Z,17.30
2022-11-15T11:25:30.120Z,17.29
2022-11-15T11:28:10.414Z,17.30
2022-11-15T11:30:48.954Z,17.32
2022-11-15T11:33:31.268Z,17.36
2022-11-15T11:36:16.713Z,17.40
2022-11-15T11:39:29.044Z,17.45
2022-11-15T11:43:00.263Z,17.52
2022-11-15T11:45:47.185Z,17.62
2022-11-15T11:48:24.695Z,17.69
2022-11-15T11:50:51.492Z,17.75
2022-11-15T11:53:40.976Z,17.86
2022-11-15T11:56:30.733Z,17.92
2022-11-15T11:59:08.782Z,17.97
2022-11-15T12:01:42.936Z,18.01
2022-11-15T12:04:42.930Z,18.07
2022-11-15T12:07:18.789Z,18.08
2022-11-15T12:10:04.300Z,18.08
2022-11-15T12:13:08.072Z,18.11
2022-11-15T12:15:46.347Z,18.16
2022-11-15T12:18:16.871Z,18.23
2022-11-15T12:20:56.494Z,18.31
2022-11-15T12:23:35.987Z,18.40
2022-11-15T12:26:24.692Z,18.47
2022-11-15T12:29:07.969Z,18.53
2022-11-15T12:31:35.592Z,18.57
2022-11-15T12:34:20.615Z,18.65
2022-11-15T12:36:49.525Z,18.67
2022-11-15T12:39:18.168Z,18.71
2022-11-15T12:42:05.256Z,18.71
2022-11-15T12:44:31.977Z,18.70
2022-11-15T12:46:58.645Z,18.68
2022-11-15T12:49:28.007Z,18.67
2022-11-15T12:51:57.757Z,18.66
2022-11-15T12:54:24.388Z,18.65
2022-11-15T12:57:07.947Z,18.65
2022-11-15T12:59:58.671Z,18.62
2022-11-15T13:02:36.384Z,18.61
2022-11-15T13:05:35.698Z,18.60
2022-11-15T13:08:02.499Z,18.58
2022-11-15T13:10:34.478Z,18.59
2022-11-15T13:13:09.511Z,18.61
2022-11-15T13:15:53.956Z,18.62
2022-11-15T13:18:37.022Z,18.63
2022-11-15T13:21:39.241Z,18.63
2022-11-15T13:24:11.944Z,18.62
2022-11-15T13:26:41.018Z,18.61
2022-11-15T13:29:20.251Z,18.62
2022-11-15T13:31:48.109Z,18.62
2022-11-15T13:34:50.971Z,18.64
2022-11-15T13:37:21.952Z,18.65
2022-11-15T13:39:50.379Z,18.66
2022-11-15T13:42:19.915Z,18.67
2022-11-15T13:45:04.744Z,18.69
2022-11-15T13:47:32.669Z,18.70
2022-11-15T13:50:01.848Z,18.75
2022-11-15T13:52:34.516Z,18.78
2022-11-15T13:55:22.529Z,18.81
2022-11-15T13:58:00.334Z,18.81
2022-11-15T14:00:40.108Z,18.85
2022-11-15T14:03:32.362Z,18.85
2022-11-15T14:06:08.589Z,18.88
2022-11-15T14:08:36.731Z,18.88
2022-11-15T14:11:09.613Z,18.88
2022-11-15T14:13:37.115Z,18.87
2022-11-15T14:16:20.338Z,18.85
2022-11-15T14:18:53.780Z,18.81
2022-11-15T14:21:21.467Z,18.76
2022-11-15T14:23:49.925Z,18.72
2022-11-15T14:26:34.961Z,18.68
2022-11-15T14:29:33.708Z,18.61
2022-11-15T14:32:23.396Z,18.54
2022-11-15T14:34:59.222Z,18.49
2022-11-15T14:37:35.778Z,18.45
2022-11-15T14:40:06.041Z,18.43
2022-11-15T14:42:33.178Z,18.42
2022-11-15T14:44:59.965Z,18.42
2022-11-15T14:47:26.736Z,18.42
2022-11-15T14:49:53.612Z,18.39
2022-11-15T14:52:32.891Z,18.38
2022-11-15T14:55:00.492Z,18.33
2022-11-15T14:57:27.319Z,18.30
2022-11-15T14:59:54.211Z,18.25
2022-11-15T15:02:25.423Z,18.23
2022-11-15T15:04:52.820Z,18.19
2022-11-15T15:07:20.625Z,18.14
2022-11-15T15:09:47.910Z,18.10
2022-11-15T15:12:24.077Z,18.06
2022-11-15T15:14:51.753Z,18.02
2022-11-15T15:17:19.042Z,17.98
2022-11-15T15:19:46.015Z,17.94
2022-11-15T15:22:26.400Z,17.90
2022-11-15T15:24:53.143Z,17.87
2022-11-15T15:27:19.952Z,17.84
2022-11-15T15:29:46.950Z,17.84
2022-11-15T15:32:14.362Z,17.78
2022-11-15T15:34:41.445Z,17.76
2022-11-15T15:37:25.177Z,17.75
2022-11-15T15:39:57.073Z,17.72
2022-11-15T15:42:24.586Z,17.68
2022-11-15T15:44:52.237Z,17.65
2022-11-15T15:47:24.126Z,17.63
2022-11-15T15:49:51.852Z,17.60
2022-11-15T15:52:19.157Z,17.57
2022-11-15T15:54:46.205Z,17.55
2022-11-15T15:57:14.365Z,17.54
2022-11-15T15:59:41.576Z,17.53
2022-11-15T16:02:13.633Z,17.52
2022-11-15T16:04:41.167Z,17.49
2022-11-15T16:07:21.468Z,17.48
2022-11-15T16:10:03.539Z,17.46
2022-11-15T16:12:35.783Z,17.44
2022-11-15T16:15:04.157Z,17.44
2022-11-15T16:17:38.679Z,17.43
2022-11-15T16:20:06.290Z,17.42
2022-11-15T16:22:33.108Z,17.42
2022-11-15T16:24:59.920Z,17.40
2022-11-15T16:27:26.693Z,17.40
2022-11-15T16:29:53.452Z,17.40
2022-11-15T16:32:20.274Z,17.39
2022-11-15T16:34:49.173Z,17.36
2022-11-15T16:37:25.798Z,17.36
2022-11-15T16:39:54.867Z,17.32
2022-11-15T16:42:25.221Z,17.30
2022-11-15T16:44:51.989Z,17.29
2022-11-15T16:47:20.009Z,17.26
2022-11-15T16:49:47.511Z,17.26
2022-11-15T16:52:18.764Z,17.27
2022-11-15T16:54:47.905Z,17.26
2022-11-15T16:57:14.672Z,17.26
2022-11-15T16:59:41.582Z,17.26
2022-11-15T17:02:15.029Z,17.28
2022-11-15T17:04:41.967Z,17.24
2022-11-15T17:07:09.224Z,17.22
2022-11-15T17:09:36.061Z,17.20
2022-11-15T17:12:02.851Z,17.18
2022-11-15T17:14:29.833Z,17.16
2022-11-15T17:16:56.647Z,17.17
2022-11-15T17:19:23.434Z,17.15
2022-11-15T17:21:50.543Z,17.13
2022-11-15T17:24:17.949Z,17.12
2022-11-15T17:26:44.815Z,17.10
2022-11-15T17:29:11.734Z,17.06
2022-11-15T17:31:39.142Z,17.04
2022-11-15T17:34:07.287Z,17.01
2022-11-15T17:36:34.960Z,16.99
2022-11-15T17:39:02.693Z,16.98
2022-11-15T17:41:29.841Z,16.97
2022-11-15T17:43:59.642Z,16.97
2022-11-15T17:46:28.063Z,16.96
2022-11-15T17:48:56.750Z,16.96
2022-11-15T17:51:24.178Z,16.96
2022-11-15T17:53:51.722Z,16.95
2022-11-15T17:56:22.875Z,16.95
2022-11-15T17:58:57.191Z,16.95
2022-11-15T18:01:30.722Z,16.92
2022-11-15T18:04:00.528Z,16.91
2022-11-15T18:06:32.703Z,16.89
2022-11-15T18:09:00.346Z,16.87
2022-11-15T18:11:50.460Z,16.85
2022-11-15T18:14:19.112Z,16.84
2022-11-15T18:16:46.126Z,16.82
2022-11-15T18:19:13.698Z,16.79
2022-11-15T18:21:58.871Z,16.75
2022-11-15T18:24:30.125Z,16.72
2022-11-15T18:26:58.772Z,16.68
2022-11-15T18:29:25.893Z,16.66
2022-11-15T18:31:56.876Z,16.65
2022-11-15T18:34:33.344Z,16.63
2022-11-15T18:37:02.887Z,16.62
2022-11-15T18:39:30.249Z,16.61
2022-11-15T18:41:57.331Z,16.61
2022-11-15T18:44:24.200Z,16.61
2022-11-15T18:46:51.064Z,16.62
2022-11-15T18:49:19.730Z,16.61
2022-11-15T18:51:47.443Z,16.61
2022-11-15T18:54:16.422Z,16.62
2022-11-15T18:56:46.937Z,16.61
2022-11-15T18:59:14.896Z,16.60
2022-11-15T19:01:46.455Z,16.59
2022-11-15T19:04:18.316Z,16.59
2022-11-15T19:06:48.061Z,16.57
2022-11-15T19:09:17.309Z,16.55
2022-11-15T19:11:46.943Z,16.53
2022-11-15T19:14:16.411Z,16.54
2022-11-15T19:16:49.822Z,16.55
2022-11-15T19:19:20.416Z,16.55
2022-11-15T19:21:47.822Z,16.54
2022-11-15T19:24:15.308Z,16.54
2022-11-15T19:26:42.580Z,16.52
2022-11-15T19:29:10.601Z,16.51
2022-11-15T19:31:38.183Z,16.49
2022-11-15T19:34:06.806Z,16.48
2022-11-15T19:36:44.575Z,16.49
2022-11-15T19:39:14.917Z,16.47
2022-11-15T19:41:43.736Z,16.48
2022-11-15T19:44:12.120Z,16.48
2022-11-15T19:46:39.514Z,16.48
2022-11-15T19:49:11.034Z,16.49
2022-11-15T19:51:41.632Z,16.50
2022-11-15T19:54:09.728Z,16.50
2022-11-15T19:56:37.347Z,16.50
2022-11-15T19:59:05.029Z,16.49
2022-11-15T20:01:36.319Z,16.48
2022-11-15T20:04:03.634Z,16.49
2022-11-15T20:06:41.190Z,16.52
2022-11-15T20:09:11.367Z,16.50
2022-11-15T20:11:39.348Z,16.48
2022-11-15T20:14:07.814Z,16.45
2022-11-15T20:16:34.806Z,16.42
2022-11-15T20:19:01.786Z,16.39
2022-11-15T20:21:28.579Z,16.38
2022-11-15T20:23:56.320Z,16.35
2022-11-15T20:26:23.641Z,16.33
2022-11-15T20:28:50.453Z,16.28
2022-11-15T20:31:17.943Z,16.25
2022-11-15T20:33:44.870Z,16.24
2022-11-15T20:36:14.422Z,16.21
2022-11-15T20:38:41.544Z,16.18
2022-11-15T20:41:14.234Z,16.16
2022-11-15T20:43:43.312Z,16.13
2022-11-15T20:46:12.032Z,16.11
2022-11-15T20:48:39.751Z,16.10
2022-11-15T20:51:16.081Z,16.09
2022-11-15T20:53:44.940Z,16.09
2022-11-15T20:56:15.192Z,16.09
2022-11-15T20:58:43.247Z,16.08
2022-11-15T21:01:14.971Z,16.09
2022-11-15T21:03:42.230Z,16.10
2022-11-15T21:06:10.391Z,16.11
2022-11-15T21:08:55.988Z,16.11
2022-11-15T21:11:43.084Z,16.09
2022-11-15T21:14:10.025Z,16.09
2022-11-15T21:16:37.976Z,16.09
2022-11-15T21:19:06.513Z,16.10
2022-11-15T21:21:34.041Z,16.11
2022-11-15T21:24:04.469Z,16.12
2022-11-15T21:26:31.360Z,16.12
2022-11-15T21:28:58.164Z,16.14
2022-11-15T21:31:24.985Z,16.12
2022-11-15T21:33:51.734Z,16.12
2022-11-15T21:36:18.579Z,16.13
2022-11-15T21:38:45.343Z,16.13
2022-11-15T21:41:12.125Z,16.13
2022-11-15T21:43:38.893Z,16.14
2022-11-15T21:46:06.943Z,16.15
2022-11-15T21:48:35.679Z,16.13
2022-11-15T21:51:05.971Z,16.12
2022-11-15T21:53:33.958Z,16.12
2022-11-15T21:56:01.745Z,16.11
2022-11-15T21:58:29.265Z,16.11
2022-11-15T22:01:15.183Z,16.08
2022-11-15T22:03:42.740Z,16.06
2022-11-15T22:06:16.028Z,16.05
2022-11-15T22:08:45.594Z,16.04
2022-11-15T22:11:12.528Z,16.02
2022-11-15T22:13:39.317Z,16.00
2022-11-15T22:16:07.926Z,16.00
2022-11-15T22:18:35.552Z,15.97
2022-11-15T22:21:09.910Z,15.98
2022-11-15T22:23:37.236Z,15.97
2022-11-15T22:26:05.318Z,15.97
2022-11-15T22:28:32.539Z,15.98
2022-11-15T22:31:00.224Z,15.97
2022-11-15T22:33:29.773Z,15.98
2022-11-15T22:35:57.504Z,15.99
2022-11-15T22:38:24.985Z,15.97
2022-11-15T22:40:51.853Z,15.98
2022-11-15T22:43:22.973Z,15.98
2022-11-15T22:45:49.749Z,15.98
2022-11-15T22:48:16.827Z,15.98
2022-11-15T22:50:44.480Z,15.98
2022-11-15T22:53:11.894Z,15.97
2022-11-15T22:55:42.043Z,15.97
2022-11-15T22:58:09.035Z,15.96
2022-11-15T23:00:36.411Z,15.94
2022-11-15T23:03:04.166Z,15.94
2022-11-15T23:05:30.952Z,15.94
2022-11-15T23:07:57.884Z,15.93
2022-11-15T23:11:02.902Z,15.93
2022-11-15T23:13:32.011Z,15.92
2022-11-15T23:16:25.492Z,15.94
2022-11-15T23:18:57.448Z,15.92
2022-11-15T23:21:46.618Z,15.90
2022-11-15T23:24:15.057Z,15.87
2022-11-15T23:26:43.512Z,15.88
2022-11-15T23:29:14.067Z,15.86
2022-11-15T23:32:02.333Z,15.87
2022-11-15T23:34:31.357Z,15.86
2022-11-15T23:36:58.887Z,15.87
2022-11-15T23:39:25.715Z,15.85
2022-11-15T23:41:52.538Z,15.87
2022-11-15T23:44:19.328Z,15.86
2022-11-15T23:46:46.118Z,15.86
2022-11-15T23:49:13.007Z,15.86
2022-11-15T23:51:39.829Z,15.87
2022-11-15T23:54:07.456Z,15.86
2022-11-15T23:56:34.642Z,15.86
2022-11-15T23:59:01.657Z,15.84
